sensor_id;sensor_type;location;lat;lon;timestamp;P1;durP1;ratioP1;P2;durP2;ratioP2
6997;SDS011;3539;47.982;12.238;2023-07-09T00:00:01;6.87;;;5.60;;
6997;SDS011;3539;47.982;12.238;2023-07-09T00:02:31;8.53;;;5.47;;
6997;SDS011;3539;47.982;12.238;2023-07-09T00:05:16;6.67;;;5.27;;
6997;SDS011;3539;47.982;12.238;2023-07-09T00:08:11;7.70;;;5.80;;
6997;SDS011;3539;47.982;12.238;2023-07-09T00:11:07;7.17;;;5.70;;
6997;SDS011;3539;47.982;12.238;2023-07-09T00:13:44;9.27;;;5.70;;
6997;SDS011;3539;47.982;12.238;2023-07-09T00:19:03;8.87;;;5.67;;
6997;SDS011;3539;47.982;12.238;2023-07-09T00:21:36;6.40;;;5.30;;
6997;SDS011;3539;47.982;12.238;2023-07-09T00:24:30;9.30;;;5.87;;
6997;SDS011;3539;47.982;12.238;2023-07-09T00:26:59;8.77;;;5.90;;
6997;SDS011;3539;47.982;12.238;2023-07-09T00:29:33;6.97;;;5.40;;
6997;SDS011;3539;47.982;12.238;2023-07-09T00:32:07;7.63;;;5.37;;
6997;SDS011;3539;47.982;12.238;2023-07-09T00:34:40;9.73;;;5.90;;
6997;SDS011;3539;47.982;12.238;2023-07-09T00:37:20;7.83;;;5.60;;
6997;SDS011;3539;47.982;12.238;2023-07-09T00:39:53;8.17;;;6.20;;
6997;SDS011;3539;47.982;12.238;2023-07-09T00:42:22;9.43;;;5.53;;
6997;SDS011;3539;47.982;12.238;2023-07-09T00:44:53;8.70;;;5.87;;
6997;SDS011;3539;47.982;12.238;2023-07-09T00:47:22;7.40;;;6.23;;
6997;SDS011;3539;47.982;12.238;2023-07-09T00:52:53;9.93;;;6.53;;
6997;SDS011;3539;47.982;12.238;2023-07-09T00:55:24;8.73;;;6.53;;
6997;SDS011;3539;47.982;12.238;2023-07-09T00:57:54;10.63;;;6.57;;
6997;SDS011;3539;47.982;12.238;2023-07-09T01:00:28;7.87;;;5.93;;
6997;SDS011;3539;47.982;12.238;2023-07-09T01:03:07;7.90;;;6.00;;
6997;SDS011;3539;47.982;12.238;2023-07-09T01:05:37;9.13;;;6.40;;
6997;SDS011;3539;47.982;12.238;2023-07-09T01:08:06;7.60;;;6.30;;
6997;SDS011;3539;47.982;12.238;2023-07-09T01:10:34;7.37;;;6.23;;
6997;SDS011;3539;47.982;12.238;2023-07-09T01:13:03;8.07;;;5.97;;
6997;SDS011;3539;47.982;12.238;2023-07-09T01:15:30;8.07;;;5.90;;
6997;SDS011;3539;47.982;12.238;2023-07-09T01:17:59;12.20;;;6.77;;
6997;SDS011;3539;47.982;12.238;2023-07-09T01:20:26;9.07;;;6.10;;
6997;SDS011;3539;47.982;12.238;2023-07-09T01:22:55;11.97;;;6.43;;
6997;SDS011;3539;47.982;12.238;2023-07-09T01:25:26;9.97;;;6.10;;
6997;SDS011;3539;47.982;12.238;2023-07-09T01:27:56;7.90;;;6.43;;
6997;SDS011;3539;47.982;12.238;2023-07-09T01:30:30;8.00;;;6.30;;
6997;SDS011;3539;47.982;12.238;2023-07-09T01:33:01;7.43;;;6.00;;
6997;SDS011;3539;47.982;12.238;2023-07-09T01:35:29;7.83;;;6.03;;
6997;SDS011;3539;47.982;12.238;2023-07-09T01:38:02;7.93;;;5.93;;
6997;SDS011;3539;47.982;12.238;2023-07-09T01:40:31;9.50;;;6.97;;
6997;SDS011;3539;47.982;12.238;2023-07-09T01:42:59;9.30;;;7.60;;
6997;SDS011;3539;47.982;12.238;2023-07-09T01:45:27;12.47;;;7.77;;
6997;SDS011;3539;47.982;12.238;2023-07-09T01:47:55;11.37;;;7.70;;
6997;SDS011;3539;47.982;12.238;2023-07-09T01:50:23;12.57;;;8.50;;
6997;SDS011;3539;47.982;12.238;2023-07-09T01:52:51;9.17;;;7.40;;
6997;SDS011;3539;47.982;12.238;2023-07-09T01:55:20;8.50;;;7.03;;
6997;SDS011;3539;47.982;12.238;2023-07-09T01:57:55;9.77;;;6.00;;
6997;SDS011;3539;47.982;12.238;2023-07-09T02:00:22;8.93;;;6.37;;
6997;SDS011;3539;47.982;12.238;2023-07-09T02:02:56;9.07;;;5.97;;
6997;SDS011;3539;47.982;12.238;2023-07-09T02:05:31;8.37;;;6.17;;
6997;SDS011;3539;47.982;12.238;2023-07-09T02:07:58;11.33;;;6.50;;
6997;SDS011;3539;47.982;12.238;2023-07-09T02:10:29;9.27;;;5.93;;
6997;SDS011;3539;47.982;12.238;2023-07-09T02:12:56;7.63;;;6.33;;
6997;SDS011;3539;47.982;12.238;2023-07-09T02:15:26;8.83;;;6.00;;
6997;SDS011;3539;47.982;12.238;2023-07-09T02:17:55;7.20;;;5.27;;
6997;SDS011;3539;47.982;12.238;2023-07-09T02:20:27;7.07;;;6.00;;
6997;SDS011;3539;47.982;12.238;2023-07-09T02:26:27;7.77;;;6.03;;
6997;SDS011;3539;47.982;12.238;2023-07-09T02:28:56;7.57;;;5.97;;
6997;SDS011;3539;47.982;12.238;2023-07-09T02:31:23;6.83;;;5.13;;
6997;SDS011;3539;47.982;12.238;2023-07-09T02:33:50;6.87;;;5.13;;
6997;SDS011;3539;47.982;12.238;2023-07-09T02:36:17;9.90;;;5.30;;
6997;SDS011;3539;47.982;12.238;2023-07-09T02:38:44;8.43;;;5.47;;
6997;SDS011;3539;47.982;12.238;2023-07-09T02:41:11;7.13;;;5.20;;
6997;SDS011;3539;47.982;12.238;2023-07-09T02:43:44;8.30;;;5.27;;
6997;SDS011;3539;47.982;12.238;2023-07-09T02:46:11;8.60;;;5.80;;
6997;SDS011;3539;47.982;12.238;2023-07-09T02:48:40;6.50;;;5.07;;
6997;SDS011;3539;47.982;12.238;2023-07-09T02:51:09;8.27;;;5.20;;
6997;SDS011;3539;47.982;12.238;2023-07-09T02:53:36;7.17;;;5.53;;
6997;SDS011;3539;47.982;12.238;2023-07-09T02:56:03;9.63;;;5.53;;
6997;SDS011;3539;47.982;12.238;2023-07-09T02:58:35;6.27;;;5.27;;
6997;SDS011;3539;47.982;12.238;2023-07-09T03:01:04;6.37;;;5.30;;
6997;SDS011;3539;47.982;12.238;2023-07-09T03:03:34;7.27;;;5.33;;
6997;SDS011;3539;47.982;12.238;2023-07-09T03:06:01;6.93;;;4.87;;
6997;SDS011;3539;47.982;12.238;2023-07-09T03:08:28;9.02;;;5.45;;
6997;SDS011;3539;47.982;12.238;2023-07-09T03:10:54;7.17;;;5.50;;
6997;SDS011;3539;47.982;12.238;2023-07-09T03:16:42;6.83;;;5.50;;
6997;SDS011;3539;47.982;12.238;2023-07-09T03:19:10;7.10;;;5.10;;
6997;SDS011;3539;47.982;12.238;2023-07-09T03:21:40;8.27;;;5.43;;
6997;SDS011;3539;47.982;12.238;2023-07-09T03:24:11;7.70;;;5.10;;
6997;SDS011;3539;47.982;12.238;2023-07-09T03:26:43;7.90;;;5.17;;
6997;SDS011;3539;47.982;12.238;2023-07-09T03:29:10;9.27;;;5.73;;
6997;SDS011;3539;47.982;12.238;2023-07-09T03:31:37;6.50;;;5.17;;
6997;SDS011;3539;47.982;12.238;2023-07-09T03:34:06;6.73;;;5.27;;
6997;SDS011;3539;47.982;12.238;2023-07-09T03:36:36;6.57;;;4.77;;
6997;SDS011;3539;47.982;12.238;2023-07-09T03:39:03;8.17;;;5.37;;
6997;SDS011;3539;47.982;12.238;2023-07-09T03:41:30;7.37;;;5.20;;
6997;SDS011;3539;47.982;12.238;2023-07-09T03:43:57;7.23;;;5.30;;
6997;SDS011;3539;47.982;12.238;2023-07-09T03:46:24;8.87;;;5.13;;
6997;SDS011;3539;47.982;12.238;2023-07-09T03:48:50;7.13;;;4.73;;
6997;SDS011;3539;47.982;12.238;2023-07-09T03:51:19;9.93;;;5.67;;
6997;SDS011;3539;47.982;12.238;2023-07-09T03:53:45;8.37;;;5.33;;
6997;SDS011;3539;47.982;12.238;2023-07-09T03:56:12;6.67;;;4.80;;
6997;SDS011;3539;47.982;12.238;2023-07-09T03:58:39;7.67;;;4.80;;
6997;SDS011;3539;47.982;12.238;2023-07-09T04:01:06;6.47;;;5.00;;
6997;SDS011;3539;47.982;12.238;2023-07-09T04:03:32;8.30;;;5.90;;
6997;SDS011;3539;47.982;12.238;2023-07-09T04:06:01;7.30;;;5.43;;
6997;SDS011;3539;47.982;12.238;2023-07-09T04:08:29;6.23;;;5.43;;
6997;SDS011;3539;47.982;12.238;2023-07-09T04:10:58;7.30;;;5.37;;
6997;SDS011;3539;47.982;12.238;2023-07-09T04:13:26;5.30;;;4.80;;
6997;SDS011;3539;47.982;12.238;2023-07-09T04:15:53;6.47;;;5.37;;
6997;SDS011;3539;47.982;12.238;2023-07-09T04:18:20;8.33;;;5.10;;
6997;SDS011;3539;47.982;12.238;2023-07-09T04:20:47;6.17;;;5.57;;
6997;SDS011;3539;47.982;12.238;2023-07-09T04:23:15;6.03;;;4.97;;
6997;SDS011;3539;47.982;12.238;2023-07-09T04:25:43;8.87;;;5.97;;
6997;SDS011;3539;47.982;12.238;2023-07-09T04:28:10;6.57;;;5.70;;
6997;SDS011;3539;47.982;12.238;2023-07-09T04:30:37;8.87;;;6.20;;
6997;SDS011;3539;47.982;12.238;2023-07-09T04:33:04;8.17;;;6.20;;
6997;SDS011;3539;47.982;12.238;2023-07-09T04:38:53;8.57;;;6.23;;
6997;SDS011;3539;47.982;12.238;2023-07-09T04:41:21;8.67;;;6.43;;
6997;SDS011;3539;47.982;12.238;2023-07-09T04:43:48;7.13;;;5.90;;
6997;SDS011;3539;47.982;12.238;2023-07-09T04:46:14;9.37;;;5.87;;
6997;SDS011;3539;47.982;12.238;2023-07-09T04:48:41;9.10;;;5.60;;
6997;SDS011;3539;47.982;12.238;2023-07-09T04:51:08;8.67;;;6.20;;
6997;SDS011;3539;47.982;12.238;2023-07-09T04:53:35;7.20;;;5.57;;
6997;SDS011;3539;47.982;12.238;2023-07-09T04:56:01;6.73;;;5.63;;
6997;SDS011;3539;47.982;12.238;2023-07-09T04:58:30;7.10;;;5.40;;
6997;SDS011;3539;47.982;12.238;2023-07-09T05:00:57;6.23;;;5.60;;
6997;SDS011;3539;47.982;12.238;2023-07-09T05:03:23;8.10;;;6.53;;
6997;SDS011;3539;47.982;12.238;2023-07-09T05:05:50;8.13;;;5.80;;
6997;SDS011;3539;47.982;12.238;2023-07-09T05:08:17;7.77;;;5.67;;
6997;SDS011;3539;47.982;12.238;2023-07-09T05:10:44;9.27;;;6.33;;
6997;SDS011;3539;47.982;12.238;2023-07-09T05:13:12;7.43;;;6.53;;
6997;SDS011;3539;47.982;12.238;2023-07-09T05:15:41;8.27;;;6.00;;
6997;SDS011;3539;47.982;12.238;2023-07-09T05:18:09;6.83;;;5.63;;
6997;SDS011;3539;47.982;12.238;2023-07-09T05:20:36;7.33;;;5.90;;
6997;SDS011;3539;47.982;12.238;2023-07-09T05:23:03;6.37;;;5.43;;
6997;SDS011;3539;47.982;12.238;2023-07-09T05:25:30;8.13;;;5.90;;
6997;SDS011;3539;47.982;12.238;2023-07-09T05:27:57;7.97;;;5.93;;
6997;SDS011;3539;47.982;12.238;2023-07-09T05:30:23;7.63;;;6.37;;
6997;SDS011;3539;47.982;12.238;2023-07-09T05:32:51;7.97;;;5.90;;
6997;SDS011;3539;47.982;12.238;2023-07-09T05:35:21;7.40;;;6.00;;
6997;SDS011;3539;47.982;12.238;2023-07-09T05:37:47;8.53;;;5.33;;
6997;SDS011;3539;47.982;12.238;2023-07-09T05:40:14;8.87;;;5.87;;
6997;SDS011;3539;47.982;12.238;2023-07-09T05:42:41;6.57;;;5.73;;
6997;SDS011;3539;47.982;12.238;2023-07-09T05:45:08;9.33;;;6.10;;
6997;SDS011;3539;47.982;12.238;2023-07-09T05:47:35;8.40;;;5.77;;
6997;SDS011;3539;47.982;12.238;2023-07-09T05:50:04;12.10;;;6.20;;
6997;SDS011;3539;47.982;12.238;2023-07-09T05:52:31;9.33;;;6.57;;
6997;SDS011;3539;47.982;12.238;2023-07-09T05:54:58;8.77;;;6.17;;
6997;SDS011;3539;47.982;12.238;2023-07-09T05:57:25;7.57;;;6.40;;
6997;SDS011;3539;47.982;12.238;2023-07-09T05:59:52;6.93;;;5.43;;
6997;SDS011;3539;47.982;12.238;2023-07-09T06:02:21;8.60;;;6.60;;
6997;SDS011;3539;47.982;12.238;2023-07-09T06:04:48;7.43;;;5.80;;
6997;SDS011;3539;47.982;12.238;2023-07-09T06:07:16;8.97;;;5.70;;
6997;SDS011;3539;47.982;12.238;2023-07-09T06:09:44;8.33;;;6.20;;
6997;SDS011;3539;47.982;12.238;2023-07-09T06:12:11;7.67;;;6.10;;
6997;SDS011;3539;47.982;12.238;2023-07-09T06:14:38;6.90;;;6.20;;
6997;SDS011;3539;47.982;12.238;2023-07-09T06:17:05;11.63;;;6.27;;
6997;SDS011;3539;47.982;12.238;2023-07-09T06:19:32;6.60;;;5.77;;
6997;SDS011;3539;47.982;12.238;2023-07-09T06:21:59;8.57;;;6.23;;
6997;SDS011;3539;47.982;12.238;2023-07-09T06:24:27;8.47;;;6.17;;
6997;SDS011;3539;47.982;12.238;2023-07-09T06:26:54;8.50;;;6.10;;
6997;SDS011;3539;47.982;12.238;2023-07-09T06:29:21;9.33;;;6.50;;
6997;SDS011;3539;47.982;12.238;2023-07-09T06:31:47;8.47;;;6.00;;
6997;SDS011;3539;47.982;12.238;2023-07-09T06:34:14;7.23;;;5.60;;
6997;SDS011;3539;47.982;12.238;2023-07-09T06:36:41;7.33;;;6.00;;
6997;SDS011;3539;47.982;12.238;2023-07-09T06:39:08;6.27;;;5.37;;
6997;SDS011;3539;47.982;12.238;2023-07-09T06:41:36;10.10;;;5.73;;
6997;SDS011;3539;47.982;12.238;2023-07-09T06:44:04;8.90;;;5.90;;
6997;SDS011;3539;47.982;12.238;2023-07-09T06:46:31;6.63;;;5.63;;
6997;SDS011;3539;47.982;12.238;2023-07-09T06:48:58;8.67;;;6.00;;
6997;SDS011;3539;47.982;12.238;2023-07-09T06:51:24;10.63;;;5.80;;
6997;SDS011;3539;47.982;12.238;2023-07-09T06:53:51;7.20;;;5.93;;
6997;SDS011;3539;47.982;12.238;2023-07-09T06:56:18;6.70;;;5.50;;
6997;SDS011;3539;47.982;12.238;2023-07-09T06:58:46;7.93;;;5.60;;
6997;SDS011;3539;47.982;12.238;2023-07-09T07:01:13;8.00;;;5.43;;
6997;SDS011;3539;47.982;12.238;2023-07-09T07:03:39;7.63;;;5.53;;
6997;SDS011;3539;47.982;12.238;2023-07-09T07:06:06;9.83;;;5.73;;
6997;SDS011;3539;47.982;12.238;2023-07-09T07:08:34;6.90;;;5.37;;
6997;SDS011;3539;47.982;12.238;2023-07-09T07:11:02;7.97;;;5.40;;
6997;SDS011;3539;47.982;12.238;2023-07-09T07:13:32;6.77;;;5.30;;
6997;SDS011;3539;47.982;12.238;2023-07-09T07:16:02;6.73;;;5.40;;
6997;SDS011;3539;47.982;12.238;2023-07-09T07:18:29;7.40;;;5.30;;
6997;SDS011;3539;47.982;12.238;2023-07-09T07:20:56;6.60;;;5.17;;
6997;SDS011;3539;47.982;12.238;2023-07-09T07:23:22;7.53;;;5.57;;
6997;SDS011;3539;47.982;12.238;2023-07-09T07:25:49;8.27;;;5.27;;
6997;SDS011;3539;47.982;12.238;2023-07-09T07:28:16;7.77;;;5.50;;
6997;SDS011;3539;47.982;12.238;2023-07-09T07:30:43;9.77;;;5.70;;
6997;SDS011;3539;47.982;12.238;2023-07-09T07:33:13;7.83;;;5.27;;
6997;SDS011;3539;47.982;12.238;2023-07-09T07:35:40;6.00;;;5.07;;
6997;SDS011;3539;47.982;12.238;2023-07-09T07:38:07;6.77;;;5.30;;
6997;SDS011;3539;47.982;12.238;2023-07-09T07:40:36;6.07;;;5.00;;
6997;SDS011;3539;47.982;12.238;2023-07-09T07:43:03;6.10;;;5.00;;
6997;SDS011;3539;47.982;12.238;2023-07-09T07:45:29;7.90;;;4.40;;
6997;SDS011;3539;47.982;12.238;2023-07-09T07:47:56;11.27;;;4.70;;
6997;SDS011;3539;47.982;12.238;2023-07-09T07:50:24;6.10;;;4.67;;
6997;SDS011;3539;47.982;12.238;2023-07-09T07:52:51;7.93;;;5.07;;
6997;SDS011;3539;47.982;12.238;2023-07-09T07:55:18;5.53;;;4.83;;
6997;SDS011;3539;47.982;12.238;2023-07-09T07:57:45;5.70;;;4.10;;
6997;SDS011;3539;47.982;12.238;2023-07-09T08:00:12;8.23;;;4.50;;
6997;SDS011;3539;47.982;12.238;2023-07-09T08:02:39;4.57;;;4.17;;
6997;SDS011;3539;47.982;12.238;2023-07-09T08:05:06;6.30;;;4.23;;
6997;SDS011;3539;47.982;12.238;2023-07-09T08:07:34;6.47;;;4.23;;
6997;SDS011;3539;47.982;12.238;2023-07-09T08:10:01;6.63;;;4.33;;
6997;SDS011;3539;47.982;12.238;2023-07-09T08:12:29;6.13;;;3.97;;
6997;SDS011;3539;47.982;12.238;2023-07-09T08:14:58;7.70;;;4.07;;
6997;SDS011;3539;47.982;12.238;2023-07-09T08:17:25;4.43;;;3.53;;
6997;SDS011;3539;47.982;12.238;2023-07-09T08:19:52;13.20;;;4.38;;
6997;SDS011;3539;47.982;12.238;2023-07-09T08:22:19;5.50;;;4.13;;
6997;SDS011;3539;47.982;12.238;2023-07-09T08:24:48;4.97;;;3.90;;
6997;SDS011;3539;47.982;12.238;2023-07-09T08:27:15;6.30;;;3.90;;
6997;SDS011;3539;47.982;12.238;2023-07-09T08:29:44;4.55;;;3.92;;
6997;SDS011;3539;47.982;12.238;2023-07-09T08:32:12;5.45;;;4.03;;
6997;SDS011;3539;47.982;12.238;2023-07-09T08:34:40;4.75;;;4.10;;
6997;SDS011;3539;47.982;12.238;2023-07-09T08:37:07;4.90;;;3.78;;
6997;SDS011;3539;47.982;12.238;2023-07-09T08:39:34;4.97;;;3.58;;
6997;SDS011;3539;47.982;12.238;2023-07-09T08:42:04;5.03;;;3.92;;
6997;SDS011;3539;47.982;12.238;2023-07-09T08:47:26;4.63;;;3.13;;
6997;SDS011;3539;47.982;12.238;2023-07-09T08:49:59;4.97;;;3.30;;
6997;SDS011;3539;47.982;12.238;2023-07-09T08:52:28;5.18;;;3.67;;
6997;SDS011;3539;47.982;12.238;2023-07-09T08:54:59;5.47;;;3.60;;
6997;SDS011;3539;47.982;12.238;2023-07-09T08:57:33;5.68;;;3.50;;
6997;SDS011;3539;47.982;12.238;2023-07-09T09:00:02;5.60;;;3.47;;
6997;SDS011;3539;47.982;12.238;2023-07-09T09:02:35;5.05;;;3.45;;
6997;SDS011;3539;47.982;12.238;2023-07-09T09:05:06;5.80;;;3.08;;
6997;SDS011;3539;47.982;12.238;2023-07-09T09:07:37;4.82;;;3.08;;
6997;SDS011;3539;47.982;12.238;2023-07-09T09:10:07;3.85;;;3.40;;
6997;SDS011;3539;47.982;12.238;2023-07-09T09:12:41;3.97;;;3.42;;
6997;SDS011;3539;47.982;12.238;2023-07-09T09:15:12;4.25;;;3.38;;
6997;SDS011;3539;47.982;12.238;2023-07-09T09:17:41;5.95;;;3.55;;
6997;SDS011;3539;47.982;12.238;2023-07-09T09:20:09;4.72;;;3.33;;
6997;SDS011;3539;47.982;12.238;2023-07-09T09:22:40;5.22;;;3.70;;
6997;SDS011;3539;47.982;12.238;2023-07-09T09:25:15;4.60;;;3.40;;
6997;SDS011;3539;47.982;12.238;2023-07-09T09:27:48;4.90;;;3.53;;
6997;SDS011;3539;47.982;12.238;2023-07-09T09:30:16;4.00;;;3.47;;
6997;SDS011;3539;47.982;12.238;2023-07-09T09:32:44;4.65;;;3.90;;
6997;SDS011;3539;47.982;12.238;2023-07-09T09:35:12;4.32;;;3.50;;
6997;SDS011;3539;47.982;12.238;2023-07-09T09:37:40;5.10;;;4.13;;
6997;SDS011;3539;47.982;12.238;2023-07-09T09:40:10;4.22;;;3.63;;
6997;SDS011;3539;47.982;12.238;2023-07-09T09:42:37;4.90;;;3.67;;
6997;SDS011;3539;47.982;12.238;2023-07-09T09:45:09;6.15;;;3.40;;
6997;SDS011;3539;47.982;12.238;2023-07-09T09:47:37;3.78;;;3.33;;
6997;SDS011;3539;47.982;12.238;2023-07-09T09:50:04;5.28;;;3.70;;
6997;SDS011;3539;47.982;12.238;2023-07-09T09:52:32;5.18;;;3.63;;
6997;SDS011;3539;47.982;12.238;2023-07-09T09:55:02;4.00;;;3.33;;
6997;SDS011;3539;47.982;12.238;2023-07-09T09:57:31;5.22;;;3.67;;
6997;SDS011;3539;47.982;12.238;2023-07-09T09:59:57;6.05;;;3.42;;
6997;SDS011;3539;47.982;12.238;2023-07-09T10:02:26;4.25;;;3.65;;
6997;SDS011;3539;47.982;12.238;2023-07-09T10:04:53;4.05;;;3.40;;
6997;SDS011;3539;47.982;12.238;2023-07-09T10:07:21;4.03;;;3.40;;
6997;SDS011;3539;47.982;12.238;2023-07-09T10:09:51;4.60;;;3.70;;
6997;SDS011;3539;47.982;12.238;2023-07-09T10:12:25;5.13;;;3.42;;
6997;SDS011;3539;47.982;12.238;2023-07-09T10:15:01;4.20;;;2.83;;
6997;SDS011;3539;47.982;12.238;2023-07-09T10:17:40;5.15;;;3.05;;
6997;SDS011;3539;47.982;12.238;2023-07-09T10:20:15;4.75;;;2.85;;
6997;SDS011;3539;47.982;12.238;2023-07-09T10:22:48;5.15;;;2.85;;
6997;SDS011;3539;47.982;12.238;2023-07-09T10:25:20;4.68;;;3.00;;
6997;SDS011;3539;47.982;12.238;2023-07-09T10:28:02;2.80;;;2.60;;
6997;SDS011;3539;47.982;12.238;2023-07-09T10:30:41;4.72;;;3.10;;
6997;SDS011;3539;47.982;12.238;2023-07-09T10:33:15;4.65;;;3.38;;
6997;SDS011;3539;47.982;12.238;2023-07-09T10:35:47;4.13;;;2.92;;
6997;SDS011;3539;47.982;12.238;2023-07-09T10:38:20;5.63;;;2.92;;
6997;SDS011;3539;47.982;12.238;2023-07-09T10:40:58;3.70;;;2.80;;
6997;SDS011;3539;47.982;12.238;2023-07-09T10:43:29;3.00;;;2.70;;
6997;SDS011;3539;47.982;12.238;2023-07-09T10:46:01;4.18;;;2.65;;
6997;SDS011;3539;47.982;12.238;2023-07-09T10:48:33;3.28;;;2.88;;
6997;SDS011;3539;47.982;12.238;2023-07-09T10:51:02;4.45;;;2.60;;
6997;SDS011;3539;47.982;12.238;2023-07-09T10:53:31;3.72;;;2.67;;
6997;SDS011;3539;47.982;12.238;2023-07-09T10:56:00;3.75;;;2.70;;
6997;SDS011;3539;47.982;12.238;2023-07-09T10:58:31;3.08;;;2.63;;
6997;SDS011;3539;47.982;12.238;2023-07-09T11:01:01;3.80;;;3.10;;
6997;SDS011;3539;47.982;12.238;2023-07-09T11:03:34;3.78;;;2.80;;
6997;SDS011;3539;47.982;12.238;2023-07-09T11:06:04;4.35;;;2.88;;
6997;SDS011;3539;47.982;12.238;2023-07-09T11:08:38;3.15;;;2.83;;
6997;SDS011;3539;47.982;12.238;2023-07-09T11:11:06;4.53;;;3.13;;
6997;SDS011;3539;47.982;12.238;2023-07-09T11:13:36;4.13;;;3.05;;
6997;SDS011;3539;47.982;12.238;2023-07-09T11:16:04;2.92;;;2.53;;
6997;SDS011;3539;47.982;12.238;2023-07-09T11:18:34;4.85;;;3.00;;
6997;SDS011;3539;47.982;12.238;2023-07-09T11:21:07;3.33;;;2.72;;
6997;SDS011;3539;47.982;12.238;2023-07-09T11:23:39;4.30;;;2.58;;
6997;SDS011;3539;47.982;12.238;2023-07-09T11:26:11;4.75;;;2.83;;
6997;SDS011;3539;47.982;12.238;2023-07-09T11:28:41;3.47;;;2.70;;
6997;SDS011;3539;47.982;12.238;2023-07-09T11:31:17;5.15;;;2.70;;
6997;SDS011;3539;47.982;12.238;2023-07-09T11:33:48;4.38;;;2.42;;
6997;SDS011;3539;47.982;12.238;2023-07-09T11:36:24;3.20;;;2.50;;
6997;SDS011;3539;47.982;12.238;2023-07-09T11:38:52;2.92;;;2.45;;
6997;SDS011;3539;47.982;12.238;2023-07-09T11:41:25;4.13;;;2.53;;
6997;SDS011;3539;47.982;12.238;2023-07-09T11:44:00;3.15;;;2.67;;
6997;SDS011;3539;47.982;12.238;2023-07-09T11:46:30;5.50;;;2.40;;
6997;SDS011;3539;47.982;12.238;2023-07-09T11:48:59;3.50;;;2.63;;
6997;SDS011;3539;47.982;12.238;2023-07-09T11:51:29;3.20;;;2.42;;
6997;SDS011;3539;47.982;12.238;2023-07-09T11:54:01;3.70;;;2.80;;
6997;SDS011;3539;47.982;12.238;2023-07-09T11:56:28;2.75;;;2.30;;
6997;SDS011;3539;47.982;12.238;2023-07-09T11:58:57;3.47;;;2.70;;
6997;SDS011;3539;47.982;12.238;2023-07-09T12:01:25;4.68;;;2.90;;
6997;SDS011;3539;47.982;12.238;2023-07-09T12:03:55;3.45;;;2.63;;
6997;SDS011;3539;47.982;12.238;2023-07-09T12:06:24;3.53;;;2.63;;
6997;SDS011;3539;47.982;12.238;2023-07-09T12:08:53;3.72;;;2.67;;
6997;SDS011;3539;47.982;12.238;2023-07-09T12:11:21;3.00;;;2.70;;
6997;SDS011;3539;47.982;12.238;2023-07-09T12:13:49;4.65;;;2.80;;
6997;SDS011;3539;47.982;12.238;2023-07-09T12:16:20;3.22;;;2.80;;
6997;SDS011;3539;47.982;12.238;2023-07-09T12:18:48;3.50;;;2.60;;
6997;SDS011;3539;47.982;12.238;2023-07-09T12:21:14;3.83;;;2.60;;
6997;SDS011;3539;47.982;12.238;2023-07-09T12:23:42;4.80;;;2.90;;
6997;SDS011;3539;47.982;12.238;2023-07-09T12:26:11;2.58;;;2.35;;
6997;SDS011;3539;47.982;12.238;2023-07-09T12:28:40;3.17;;;2.78;;
6997;SDS011;3539;47.982;12.238;2023-07-09T12:31:12;3.75;;;2.47;;
6997;SDS011;3539;47.982;12.238;2023-07-09T12:33:46;3.08;;;2.65;;
6997;SDS011;3539;47.982;12.238;2023-07-09T12:36:14;3.40;;;2.60;;
6997;SDS011;3539;47.982;12.238;2023-07-09T12:38:50;4.60;;;2.55;;
6997;SDS011;3539;47.982;12.238;2023-07-09T12:41:20;5.53;;;2.78;;
6997;SDS011;3539;47.982;12.238;2023-07-09T12:43:49;2.75;;;2.38;;
6997;SDS011;3539;47.982;12.238;2023-07-09T12:46:18;3.58;;;2.90;;
6997;SDS011;3539;47.982;12.238;2023-07-09T12:48:45;5.93;;;3.03;;
6997;SDS011;3539;47.982;12.238;2023-07-09T12:51:13;3.22;;;2.60;;
6997;SDS011;3539;47.982;12.238;2023-07-09T12:53:42;3.70;;;2.78;;
6997;SDS011;3539;47.982;12.238;2023-07-09T12:56:12;4.25;;;2.78;;
6997;SDS011;3539;47.982;12.238;2023-07-09T12:58:40;5.13;;;2.67;;
6997;SDS011;3539;47.982;12.238;2023-07-09T13:01:07;3.55;;;2.90;;
6997;SDS011;3539;47.982;12.238;2023-07-09T13:03:51;4.95;;;2.65;;
6997;SDS011;3539;47.982;12.238;2023-07-09T13:06:25;3.42;;;2.60;;
6997;SDS011;3539;47.982;12.238;2023-07-09T13:08:55;3.30;;;2.33;;
6997;SDS011;3539;47.982;12.238;2023-07-09T13:11:24;3.03;;;2.65;;
6997;SDS011;3539;47.982;12.238;2023-07-09T13:13:55;3.40;;;2.45;;
6997;SDS011;3539;47.982;12.238;2023-07-09T13:16:22;3.40;;;2.58;;
6997;SDS011;3539;47.982;12.238;2023-07-09T13:18:49;4.00;;;2.60;;
6997;SDS011;3539;47.982;12.238;2023-07-09T13:21:16;3.80;;;2.80;;
6997;SDS011;3539;47.982;12.238;2023-07-09T13:23:43;4.68;;;2.88;;
6997;SDS011;3539;47.982;12.238;2023-07-09T13:26:11;4.10;;;2.78;;
6997;SDS011;3539;47.982;12.238;2023-07-09T13:28:45;3.42;;;2.65;;
6997;SDS011;3539;47.982;12.238;2023-07-09T13:31:13;4.72;;;3.00;;
6997;SDS011;3539;47.982;12.238;2023-07-09T13:33:41;6.03;;;2.70;;
6997;SDS011;3539;47.982;12.238;2023-07-09T13:36:08;4.45;;;2.80;;
6997;SDS011;3539;47.982;12.238;2023-07-09T13:38:34;4.22;;;2.88;;
6997;SDS011;3539;47.982;12.238;2023-07-09T13:41:09;3.85;;;2.60;;
6997;SDS011;3539;47.982;12.238;2023-07-09T13:43:37;3.45;;;2.42;;
6997;SDS011;3539;47.982;12.238;2023-07-09T13:46:06;4.25;;;2.75;;
6997;SDS011;3539;47.982;12.238;2023-07-09T13:48:34;5.32;;;3.03;;
6997;SDS011;3539;47.982;12.238;2023-07-09T13:51:05;4.80;;;2.95;;
6997;SDS011;3539;47.982;12.238;2023-07-09T13:53:40;3.90;;;2.72;;
6997;SDS011;3539;47.982;12.238;2023-07-09T13:56:07;4.28;;;3.05;;
6997;SDS011;3539;47.982;12.238;2023-07-09T13:58:34;4.68;;;2.78;;
6997;SDS011;3539;47.982;12.238;2023-07-09T14:01:05;3.35;;;2.45;;
6997;SDS011;3539;47.982;12.238;2023-07-09T14:03:37;3.78;;;2.72;;
6997;SDS011;3539;47.982;12.238;2023-07-09T14:06:03;4.28;;;2.80;;
6997;SDS011;3539;47.982;12.238;2023-07-09T14:08:30;3.42;;;2.90;;
6997;SDS011;3539;47.982;12.238;2023-07-09T14:11:02;4.15;;;2.80;;
6997;SDS011;3539;47.982;12.238;2023-07-09T14:13:30;5.70;;;2.80;;
6997;SDS011;3539;47.982;12.238;2023-07-09T14:15:58;3.80;;;2.95;;
6997;SDS011;3539;47.982;12.238;2023-07-09T14:18:27;3.60;;;2.67;;
6997;SDS011;3539;47.982;12.238;2023-07-09T14:20:54;4.82;;;2.63;;
6997;SDS011;3539;47.982;12.238;2023-07-09T14:23:21;3.72;;;2.47;;
6997;SDS011;3539;47.982;12.238;2023-07-09T14:25:48;3.42;;;2.30;;
6997;SDS011;3539;47.982;12.238;2023-07-09T14:28:15;6.57;;;3.05;;
6997;SDS011;3539;47.982;12.238;2023-07-09T14:30:44;5.30;;;2.75;;
6997;SDS011;3539;47.982;12.238;2023-07-09T14:33:12;4.80;;;2.90;;
6997;SDS011;3539;47.982;12.238;2023-07-09T14:35:47;2.90;;;2.53;;
6997;SDS011;3539;47.982;12.238;2023-07-09T14:38:15;4.03;;;2.45;;
6997;SDS011;3539;47.982;12.238;2023-07-09T14:40:43;4.97;;;2.70;;
6997;SDS011;3539;47.982;12.238;2023-07-09T14:43:10;4.80;;;2.92;;
6997;SDS011;3539;47.982;12.238;2023-07-09T14:45:37;3.65;;;2.70;;
6997;SDS011;3539;47.982;12.238;2023-07-09T14:48:08;3.40;;;2.65;;
6997;SDS011;3539;47.982;12.238;2023-07-09T14:50:35;4.10;;;2.88;;
6997;SDS011;3539;47.982;12.238;2023-07-09T14:53:08;4.45;;;3.00;;
6997;SDS011;3539;47.982;12.238;2023-07-09T14:55:40;4.05;;;2.78;;
6997;SDS011;3539;47.982;12.238;2023-07-09T14:58:11;4.57;;;2.63;;
6997;SDS011;3539;47.982;12.238;2023-07-09T15:00:40;4.35;;;2.78;;
6997;SDS011;3539;47.982;12.238;2023-07-09T15:03:11;7.38;;;2.78;;
6997;SDS011;3539;47.982;12.238;2023-07-09T15:05:41;4.47;;;2.70;;
6997;SDS011;3539;47.982;12.238;2023-07-09T15:08:13;3.63;;;2.63;;
6997;SDS011;3539;47.982;12.238;2023-07-09T15:10:44;4.50;;;2.90;;
6997;SDS011;3539;47.982;12.238;2023-07-09T15:13:14;3.63;;;2.70;;
6997;SDS011;3539;47.982;12.238;2023-07-09T15:15:42;4.78;;;2.92;;
6997;SDS011;3539;47.982;12.238;2023-07-09T15:18:10;3.75;;;2.42;;
6997;SDS011;3539;47.982;12.238;2023-07-09T15:20:38;3.95;;;2.90;;
6997;SDS011;3539;47.982;12.238;2023-07-09T15:23:05;7.82;;;2.90;;
6997;SDS011;3539;47.982;12.238;2023-07-09T15:25:33;4.07;;;2.58;;
6997;SDS011;3539;47.982;12.238;2023-07-09T15:28:00;4.10;;;2.40;;
6997;SDS011;3539;47.982;12.238;2023-07-09T15:30:27;3.17;;;2.40;;